Time;durP1;ratioP1;P1;durP2;ratioP2;P2;SDS_P1;SDS_P2;PMS_P1;PMS_P2;Temp;Humidity;BMP_temperature;BMP_pressure;BME280_temperature;BME280_humidity;BME280_pressure;Samples;Min_cycle;Max_cycle;Signal;HPM_P1;HPM_P2
2022/04/15 00:02:05;;;;;;;;;;;15.90;99.90;;;;;;5068657;28;19928;-48
2022/04/15 00:04:32;;;;;;;;;;;15.70;99.90;;;;;;5052809;28;19978;-48
2022/04/15 00:07:00;;;;;;;;;;;15.70;99.90;;;;;;5061856;28;20355;-49
2022/04/15 00:09:27;;;;;;;;;;;15.70;99.90;;;;;;5064696;28;19924;-48
2022/04/15 00:11:55;;;;;;;;;;;15.70;99.90;;;;;;5059048;28;20360;-48
2022/04/15 00:14:22;;;;;;;;;;;15.60;99.90;;;;;;5067526;28;19931;-50
2022/04/15 00:16:49;;;;;;;;;;;15.60;99.90;;;;;;5072573;28;20333;-49
2022/04/15 00:19:16;;;;;;;;;;;15.60;99.90;;;;;;5066645;28;19970;-50
2022/04/15 00:21:43;;;;;;;;;;;15.60;99.90;;;;;;5060053;28;19925;-48
2022/04/15 00:24:11;;;;;;;;;;;15.60;99.90;;;;;;5066225;28;19924;-51
2022/04/15 00:26:38;;;;;;;;;;;15.50;99.90;;;;;;5052492;28;20341;-48
2022/04/15 00:29:06;;;;;;;;;;;15.60;99.90;;;;;;5052664;28;19924;-49
2022/04/15 00:31:33;;;;;;;;;;;15.50;99.90;;;;;;5056902;28;19925;-49
2022/04/15 00:34:00;;;;;;;;;;;15.40;99.90;;;;;;5070342;28;19925;-48
2022/04/15 00:36:27;;;;;;;;;;;15.40;99.90;;;;;;5072063;28;19939;-50
2022/04/15 00:38:54;;;;;;;;;;;15.50;99.90;;;;;;5071952;28;20061;-48
2022/04/15 00:41:25;;;;;;;;;;;15.50;99.90;;;;;;5069609;28;19978;-48
2022/04/15 00:43:55;;;;;;;;;;;15.50;99.90;;;;;;5062238;28;20031;-48
2022/04/15 00:46:22;;;;;;;;;;;15.60;99.90;;;;;;5066174;28;19951;-49
2022/04/15 00:48:49;;;;;;;;;;;15.60;99.90;;;;;;5067716;28;19924;-50
2022/04/15 00:51:15;;;;;;;;;;;15.70;99.90;;;;;;5063306;28;19970;-49
2022/04/15 00:53:43;;;;;;;;;;;15.90;99.90;;;;;;5071746;28;19928;-48
2022/04/15 00:56:10;;;;;;;;;;;15.90;99.90;;;;;;5070903;28;20456;-48
2022/04/15 00:58:39;;;;;;;;;;;15.80;99.90;;;;;;5072008;28;19977;-48
2022/04/15 01:01:07;;;;;;;;;;;15.70;99.90;;;;;;5069874;28;19932;-52
2022/04/15 01:03:35;;;;;;;;;;;15.50;99.90;;;;;;5060805;28;19925;-49
2022/04/15 01:06:04;;;;;;;;;;;15.60;99.90;;;;;;5051899;28;19924;-49
2022/04/15 01:08:32;;;;;;;;;;;15.80;99.90;;;;;;5051872;28;19924;-48
2022/04/15 01:11:01;;;;;;;;;;;16.00;99.90;;;;;;5051857;28;19925;-48
2022/04/15 01:13:28;;;;;;;;;;;15.90;99.90;;;;;;5056795;28;20409;-50
2022/04/15 01:15:56;;;;;;;;;;;15.90;99.90;;;;;;5062759;28;19924;-48
2022/04/15 01:18:24;;;;;;;;;;;15.90;99.90;;;;;;5065579;28;19924;-48
2022/04/15 01:20:51;;;;;;;;;;;15.60;99.90;;;;;;5071645;28;19924;-48
2022/04/15 01:23:19;;;;;;;;;;;15.50;99.90;;;;;;5054432;28;19925;-49
2022/04/15 01:25:46;;;;;;;;;;;15.60;99.90;;;;;;5061160;28;19951;-50
2022/04/15 01:28:16;;;;;;;;;;;15.40;99.90;;;;;;5055030;28;19970;-49
2022/04/15 01:30:43;;;;;;;;;;;15.50;99.90;;;;;;5051634;28;19929;-49
2022/04/15 01:33:09;;;;;;;;;;;15.50;99.90;;;;;;5059011;28;19924;-50
2022/04/15 01:35:36;;;;;;;;;;;15.60;99.90;;;;;;5067395;28;19924;-49
2022/04/15 01:38:04;;;;;;;;;;;15.50;99.90;;;;;;5063124;28;19971;-48
2022/04/15 01:40:33;;;;;;;;;;;15.60;99.90;;;;;;5063372;28;20007;-49
2022/04/15 01:42:59;;;;;;;;;;;15.50;99.90;;;;;;5055685;28;19985;-48
2022/04/15 01:45:26;;;;;;;;;;;15.40;99.90;;;;;;5051337;28;19925;-50
2022/04/15 01:47:53;;;;;;;;;;;15.40;99.90;;;;;;5051553;28;19925;-49
2022/04/15 01:50:19;;;;;;;;;;;15.40;99.90;;;;;;5062212;28;19978;-48
2022/04/15 01:52:46;;;;;;;;;;;15.40;99.90;;;;;;5059336;28;19925;-50
2022/04/15 01:55:13;;;;;;;;;;;15.20;99.90;;;;;;5051309;28;20288;-49
2022/04/15 01:57:41;;;;;;;;;;;15.50;99.90;;;;;;5051267;28;19970;-48
2022/04/15 02:00:08;;;;;;;;;;;15.50;99.90;;;;;;5060315;28;20000;-49
2022/04/15 02:02:35;;;;;;;;;;;15.50;99.90;;;;;;5059478;28;19928;-49
2022/04/15 02:05:01;;;;;;;;;;;15.30;99.90;;;;;;5055861;28;20394;-48
2022/04/15 02:07:28;;;;;;;;;;;15.30;99.90;;;;;;5058426;28;19929;-48
2022/04/15 02:09:55;;;;;;;;;;;15.20;99.90;;;;;;5054829;28;19929;-49
2022/04/15 02:12:22;;;;;;;;;;;15.10;99.90;;;;;;5055093;28;19978;-49
2022/04/15 02:14:50;;;;;;;;;;;15.30;99.90;;;;;;5062194;28;19932;-49
2022/04/15 02:17:17;;;;;;;;;;;15.20;99.90;;;;;;5062483;28;19925;-47
2022/04/15 02:19:44;;;;;;;;;;;15.10;99.90;;;;;;5060831;28;20447;-48
2022/04/15 02:22:10;;;;;;;;;;;15.00;99.90;;;;;;5063435;28;19970;-48
2022/04/15 02:24:37;;;;;;;;;;;14.90;99.90;;;;;;5071955;28;19970;-50
2022/04/15 02:27:04;;;;;;;;;;;14.90;99.90;;;;;;5070794;28;19933;-48
2022/04/15 02:29:32;;;;;;;;;;;14.90;99.90;;;;;;5066269;28;19924;-47
2022/04/15 02:32:00;;;;;;;;;;;15.00;99.90;;;;;;5058624;28;19925;-50
2022/04/15 02:34:27;;;;;;;;;;;14.80;99.90;;;;;;5071637;28;20065;-48
2022/04/15 02:36:53;;;;;;;;;;;14.80;99.90;;;;;;5074395;28;19924;-49
2022/04/15 02:39:20;;;;;;;;;;;14.70;99.90;;;;;;5073253;28;20443;-48
2022/04/15 02:41:49;;;;;;;;;;;14.60;99.90;;;;;;5070061;28;19925;-48
2022/04/15 02:44:16;;;;;;;;;;;14.80;99.90;;;;;;5054031;28;20442;-49
2022/04/15 02:46:42;;;;;;;;;;;14.60;99.90;;;;;;5054315;28;19925;-48
2022/04/15 02:49:11;;;;;;;;;;;14.80;99.90;;;;;;5060380;28;19969;-48
2022/04/15 02:51:38;;;;;;;;;;;14.70;99.90;;;;;;5070882;28;19924;-50
2022/04/15 02:54:05;;;;;;;;;;;14.70;99.90;;;;;;5054178;28;19925;-49
2022/04/15 02:56:31;;;;;;;;;;;14.70;99.90;;;;;;5074051;28;20002;-48
2022/04/15 02:58:58;;;;;;;;;;;14.80;99.90;;;;;;5071387;28;19925;-48
2022/04/15 03:01:25;;;;;;;;;;;14.80;99.90;;;;;;5072583;28;19924;-49
2022/04/15 03:03:51;;;;;;;;;;;15.00;99.90;;;;;;5053805;28;20623;-48
2022/04/15 03:06:19;;;;;;;;;;;15.00;99.90;;;;;;5053803;28;19925;-49
2022/04/15 03:08:46;;;;;;;;;;;15.10;99.90;;;;;;5059456;28;19974;-50
2022/04/15 03:11:13;;;;;;;;;;;15.00;99.90;;;;;;5066807;28;19986;-49
2022/04/15 03:13:40;;;;;;;;;;;15.20;99.90;;;;;;5060617;28;20480;-50
2022/04/15 03:16:07;;;;;;;;;;;15.30;99.90;;;;;;5066243;28;19928;-48
2022/04/15 03:18:34;;;;;;;;;;;15.50;99.90;;;;;;5063122;28;19924;-50
2022/04/15 03:21:00;;;;;;;;;;;15.60;99.90;;;;;;5057998;28;19990;-48
2022/04/15 03:23:29;;;;;;;;;;;15.50;99.90;;;;;;5060053;28;19924;-48
2022/04/15 03:25:55;;;;;;;;;;;15.20;99.90;;;;;;5063488;28;19935;-48
2022/04/15 03:28:22;;;;;;;;;;;15.00;99.90;;;;;;5069947;28;19978;-49
2022/04/15 03:30:49;;;;;;;;;;;14.90;99.90;;;;;;5064875;28;19971;-48
2022/04/15 03:33:16;;;;;;;;;;;14.70;99.90;;;;;;5063854;28;19929;-48
2022/04/15 03:35:42;;;;;;;;;;;14.80;99.90;;;;;;5068620;28;20406;-50
2022/04/15 03:38:09;;;;;;;;;;;14.60;99.90;;;;;;5053839;28;20289;-48
2022/04/15 03:40:37;;;;;;;;;;;14.60;99.90;;;;;;5068728;28;19951;-48
2022/04/15 03:43:04;;;;;;;;;;;14.50;99.90;;;;;;5066819;28;19932;-48
2022/04/15 03:45:31;;;;;;;;;;;14.40;99.90;;;;;;5066267;28;19924;-48
2022/04/15 03:47:58;;;;;;;;;;;14.60;99.90;;;;;;5064323;28;19924;-48
2022/04/15 03:50:25;;;;;;;;;;;14.60;99.90;;;;;;5071265;28;19963;-49
2022/04/15 03:52:52;;;;;;;;;;;14.40;99.90;;;;;;5070947;22;19925;-59
2022/04/15 03:55:20;;;;;;;;;;;14.20;99.90;;;;;;5026784;28;19925;-58
2022/04/15 03:57:48;;;;;;;;;;;14.20;99.90;;;;;;5026568;28;19987;-58
2022/04/15 04:00:17;;;;;;;;;;;14.20;99.90;;;;;;5031918;28;19950;-59
2022/04/15 04:02:44;;;;;;;;;;;14.20;99.90;;;;;;5032034;28;20314;-59
2022/04/15 04:05:12;;;;;;;;;;;14.50;99.90;;;;;;5030789;28;19931;-58
2022/04/15 04:07:39;;;;;;;;;;;14.70;99.90;;;;;;5030477;28;19954;-59
2022/04/15 04:10:06;;;;;;;;;;;14.90;99.90;;;;;;5029524;28;19925;-59
2022/04/15 04:12:34;;;;;;;;;;;14.90;99.90;;;;;;5037239;28;19987;-60
2022/04/15 04:15:03;;;;;;;;;;;14.80;99.90;;;;;;5028592;28;19988;-59
2022/04/15 04:17:29;;;;;;;;;;;14.80;99.90;;;;;;5031261;28;20005;-60
2022/04/15 04:19:56;;;;;;;;;;;14.70;99.90;;;;;;5031160;28;19925;-59
2022/04/15 04:22:27;;;;;;;;;;;14.70;99.90;;;;;;5030784;28;19999;-59
2022/04/15 04:24:54;;;;;;;;;;;14.70;99.90;;;;;;5031820;28;19925;-59
2022/04/15 04:27:20;;;;;;;;;;;14.80;99.90;;;;;;5031706;28;19929;-59
2022/04/15 04:29:47;;;;;;;;;;;14.70;99.90;;;;;;5048966;28;19924;-59
2022/04/15 04:32:16;;;;;;;;;;;14.70;99.90;;;;;;5033740;28;20347;-59
2022/04/15 04:34:43;;;;;;;;;;;14.80;99.90;;;;;;5033887;28;19925;-59
2022/04/15 04:37:09;;;;;;;;;;;14.90;99.90;;;;;;5033347;28;19979;-58
2022/04/15 04:39:36;;;;;;;;;;;14.80;99.90;;;;;;5029042;28;19995;-60
2022/04/15 04:42:04;;;;;;;;;;;14.90;99.90;;;;;;5032455;28;20018;-57
2022/04/15 04:44:31;;;;;;;;;;;14.70;99.90;;;;;;5027989;28;19994;-59
2022/04/15 04:46:58;;;;;;;;;;;14.60;99.90;;;;;;5027808;28;20190;-58
2022/04/15 04:49:26;;;;;;;;;;;14.40;99.90;;;;;;5031449;28;19925;-59
2022/04/15 04:51:53;;;;;;;;;;;14.40;99.90;;;;;;5030090;28;19971;-59
2022/04/15 04:54:20;;;;;;;;;;;14.40;99.90;;;;;;5030677;28;20374;-59
2022/04/15 04:56:46;;;;;;;;;;;14.40;99.90;;;;;;5030095;28;19932;-60
2022/04/15 04:59:13;;;;;;;;;;;14.40;99.90;;;;;;5029504;28;19990;-59
2022/04/15 05:01:40;;;;;;;;;;;14.40;99.90;;;;;;5030695;28;19971;-59
2022/04/15 05:04:07;;;;;;;;;;;14.40;99.90;;;;;;5036992;28;20012;-60
2022/04/15 05:06:36;;;;;;;;;;;14.40;99.90;;;;;;5028662;28;20336;-59
2022/04/15 05:09:03;;;;;;;;;;;14.50;99.90;;;;;;5029016;28;19925;-59
2022/04/15 05:11:30;;;;;;;;;;;14.50;99.90;;;;;;5024425;28;19925;-59
2022/04/15 05:13:57;;;;;;;;;;;14.60;99.90;;;;;;5031736;28;20303;-60
2022/04/15 05:16:23;;;;;;;;;;;14.70;99.90;;;;;;5034309;28;19925;-59
2022/04/15 05:18:50;;;;;;;;;;;14.70;99.90;;;;;;5029683;28;20044;-58
2022/04/15 05:21:17;;;;;;;;;;;14.90;99.90;;;;;;5024770;28;19929;-59
2022/04/15 05:23:46;;;;;;;;;;;14.80;99.90;;;;;;5028750;28;19987;-60
2022/04/15 05:26:14;;;;;;;;;;;14.60;99.90;;;;;;5027534;28;20382;-59
2022/04/15 05:28:41;;;;;;;;;;;14.50;99.90;;;;;;5029062;28;19925;-58
2022/04/15 05:31:08;;;;;;;;;;;14.40;99.90;;;;;;5027001;28;20414;-60
2022/04/15 05:33:35;;;;;;;;;;;14.40;99.90;;;;;;5028829;28;20478;-59
2022/04/15 05:36:02;;;;;;;;;;;14.50;99.90;;;;;;5026734;28;20342;-61
2022/04/15 05:38:29;;;;;;;;;;;14.60;99.90;;;;;;5027506;28;20020;-61
2022/04/15 05:40:57;;;;;;;;;;;14.60;99.90;;;;;;5027082;28;19925;-58
2022/04/15 05:43:24;;;;;;;;;;;14.60;99.90;;;;;;5033769;28;19987;-58
2022/04/15 05:45:51;;;;;;;;;;;14.70;99.90;;;;;;5030935;28;19933;-59
2022/04/15 05:48:18;;;;;;;;;;;14.70;99.90;;;;;;5032705;28;19929;-59
2022/04/15 05:50:44;;;;;;;;;;;14.90;99.90;;;;;;5031952;28;19929;-59
2022/04/15 05:53:12;;;;;;;;;;;15.00;99.90;;;;;;5035525;28;19925;-59
2022/04/15 05:55:38;;;;;;;;;;;15.00;99.90;;;;;;5029325;28;19979;-59
2022/04/15 05:58:07;;;;;;;;;;;14.90;99.90;;;;;;5033041;28;20298;-58
2022/04/15 06:00:34;;;;;;;;;;;14.80;99.90;;;;;;5030981;28;19925;-58
2022/04/15 06:03:01;;;;;;;;;;;14.60;99.90;;;;;;5030086;28;19979;-59
2022/04/15 06:05:28;;;;;;;;;;;14.50;99.90;;;;;;5030580;28;19925;-59
2022/04/15 06:07:54;;;;;;;;;;;14.60;99.90;;;;;;5034471;28;21309;-59
2022/04/15 06:10:21;;;;;;;;;;;14.80;99.90;;;;;;5032564;28;19995;-60
2022/04/15 06:13:06;;;;;;;;;;;15.00;99.90;;;;;;5032032;28;20141;-61
2022/04/15 06:15:35;;;;;;;;;;;15.40;99.90;;;;;;5031548;28;19925;-60
2022/04/15 06:18:03;;;;;;;;;;;15.30;99.90;;;;;;5029294;28;19925;-61
2022/04/15 06:20:30;;;;;;;;;;;15.10;99.90;;;;;;5023438;28;19952;-60
2022/04/15 06:22:57;;;;;;;;;;;15.40;99.90;;;;;;5031258;28;19986;-61
2022/04/15 06:25:24;;;;;;;;;;;15.40;99.90;;;;;;5031871;28;19924;-62
2022/04/15 06:27:51;;;;;;;;;;;15.40;99.90;;;;;;5031605;28;19944;-60
2022/04/15 06:30:20;;;;;;;;;;;15.60;99.90;;;;;;5029243;28;19936;-60
2022/04/15 06:32:48;;;;;;;;;;;15.60;99.90;;;;;;5028501;28;19972;-61
2022/04/15 06:35:16;;;;;;;;;;;15.50;99.90;;;;;;5036081;28;19940;-59
2022/04/15 06:37:43;;;;;;;;;;;15.30;99.90;;;;;;5035585;28;19929;-59
2022/04/15 06:40:11;;;;;;;;;;;15.30;99.90;;;;;;5035413;28;19929;-59
2022/04/15 06:42:38;;;;;;;;;;;15.30;99.90;;;;;;5044614;28;20027;-59
2022/04/15 06:45:05;;;;;;;;;;;15.40;99.90;;;;;;5037413;28;19925;-58
2022/04/15 06:47:32;;;;;;;;;;;15.60;99.90;;;;;;5036000;28;19929;-59
2022/04/15 06:50:00;;;;;;;;;;;15.90;99.90;;;;;;5042933;28;19925;-58
2022/04/15 06:52:27;;;;;;;;;;;16.00;99.90;;;;;;5037298;28;20039;-58
2022/04/15 06:54:53;;;;;;;;;;;16.00;99.90;;;;;;5031152;28;19929;-58
2022/04/15 06:57:21;;;;;;;;;;;16.10;99.90;;;;;;5031667;28;20005;-58
2022/04/15 06:59:48;;;;;;;;;;;16.10;99.90;;;;;;5031658;28;19958;-59
2022/04/15 07:02:15;;;;;;;;;;;16.10;99.90;;;;;;5032087;28;19972;-58
2022/04/15 07:04:42;;;;;;;;;;;16.10;99.90;;;;;;5035161;28;19968;-59
2022/04/15 07:07:13;;;;;;;;;;;16.10;99.90;;;;;;5036232;28;20394;-59
2022/04/15 07:09:40;;;;;;;;;;;16.20;99.90;;;;;;5035599;28;20418;-61
2022/04/15 07:12:08;;;;;;;;;;;15.90;99.90;;;;;;5038367;28;20345;-60
2022/04/15 07:14:34;;;;;;;;;;;16.00;99.90;;;;;;5037754;28;19931;-61
2022/04/15 07:17:01;;;;;;;;;;;15.60;99.90;;;;;;5036193;28;19978;-59
2022/04/15 07:19:28;;;;;;;;;;;15.20;99.90;;;;;;5031519;28;19925;-59
2022/04/15 07:21:55;;;;;;;;;;;15.20;99.90;;;;;;5029221;28;19925;-59
2022/04/15 07:24:23;;;;;;;;;;;15.40;99.90;;;;;;5040413;28;20387;-59
2022/04/15 07:26:50;;;;;;;;;;;15.70;99.90;;;;;;5032610;28;19929;-59
2022/04/15 07:29:17;;;;;;;;;;;16.00;99.90;;;;;;5038445;28;19925;-60
2022/04/15 07:31:43;;;;;;;;;;;16.10;99.90;;;;;;5031288;28;19933;-59
2022/04/15 07:34:10;;;;;;;;;;;16.40;99.90;;;;;;5032249;28;20342;-60
2022/04/15 07:36:53;;;;;;;;;;;16.30;99.90;;;;;;5031988;28;20350;-59
2022/04/15 07:39:21;;;;;;;;;;;16.00;99.90;;;;;;5047085;28;19956;-60
2022/04/15 07:41:53;;;;;;;;;;;15.90;99.90;;;;;;5042507;28;19933;-60
2022/04/15 07:44:20;;;;;;;;;;;16.00;99.90;;;;;;5051864;28;20008;-61
2022/04/15 07:46:47;;;;;;;;;;;16.20;99.90;;;;;;5051802;28;20027;-61
2022/04/15 07:49:14;;;;;;;;;;;16.50;99.90;;;;;;5051295;28;19928;-60
2022/04/15 07:51:41;;;;;;;;;;;16.80;99.90;;;;;;5028033;28;19925;-61
2022/04/15 07:54:08;;;;;;;;;;;16.90;99.90;;;;;;5031995;28;20363;-61
2022/04/15 07:56:35;;;;;;;;;;;16.90;99.90;;;;;;5030339;28;19929;-61
2022/04/15 07:59:04;;;;;;;;;;;16.90;99.90;;;;;;5051620;28;19924;-61
2022/04/15 08:01:31;;;;;;;;;;;16.80;99.90;;;;;;5050221;28;19928;-60
2022/04/15 08:03:58;;;;;;;;;;;16.90;99.90;;;;;;5050923;28;20007;-60
2022/04/15 08:06:26;;;;;;;;;;;16.90;99.90;;;;;;5050878;28;19971;-60
2022/04/15 08:08:54;;;;;;;;;;;16.90;99.90;;;;;;5051540;28;19977;-60
2022/04/15 08:11:20;;;;;;;;;;;16.60;99.90;;;;;;5033894;28;19976;-59
2022/04/15 08:13:47;;;;;;;;;;;16.60;99.90;;;;;;5031356;28;19983;-59
2022/04/15 08:16:15;;;;;;;;;;;16.50;99.90;;;;;;5037794;28;19971;-60
2022/04/15 08:18:42;;;;;;;;;;;16.20;99.90;;;;;;5051353;28;19929;-60
2022/04/15 08:21:09;;;;;;;;;;;16.30;99.90;;;;;;5047287;28;20467;-61
2022/04/15 08:23:36;;;;;;;;;;;16.20;99.90;;;;;;5032256;28;20071;-60
2022/04/15 08:26:03;;;;;;;;;;;16.40;99.90;;;;;;5031287;28;20349;-60
2022/04/15 08:28:30;;;;;;;;;;;16.20;99.90;;;;;;5031263;28;19925;-60
2022/04/15 08:30:56;;;;;;;;;;;16.40;99.90;;;;;;5044210;28;19932;-59
2022/04/15 08:33:24;;;;;;;;;;;16.40;99.90;;;;;;5041224;28;19984;-59
2022/04/15 08:35:51;;;;;;;;;;;16.50;99.90;;;;;;5051247;28;19925;-60
2022/04/15 08:38:18;;;;;;;;;;;16.50;99.90;;;;;;5051211;28;19928;-60
2022/04/15 08:40:49;;;;;;;;;;;16.80;99.90;;;;;;5050515;28;20051;-60
2022/04/15 08:43:15;;;;;;;;;;;17.10;99.90;;;;;;5050832;28;20392;-60
2022/04/15 08:45:42;;;;;;;;;;;17.10;99.90;;;;;;5040790;28;19925;-60
2022/04/15 08:48:10;;;;;;;;;;;17.60;99.90;;;;;;5044715;28;19947;-60
2022/04/15 08:50:39;;;;;;;;;;;18.10;99.90;;;;;;5047312;28;19925;-61
2022/04/15 08:53:06;;;;;;;;;;;18.20;99.90;;;;;;5040437;28;20460;-60
2022/04/15 08:55:32;;;;;;;;;;;19.20;99.90;;;;;;5050203;28;19986;-61
2022/04/15 08:57:59;;;;;;;;;;;19.70;99.90;;;;;;5050716;28;19924;-60
2022/04/15 09:00:27;;;;;;;;;;;20.40;99.90;;;;;;5048461;28;19932;-60
2022/04/15 09:02:54;;;;;;;;;;;20.60;99.90;;;;;;5037518;28;20035;-61
2022/04/15 09:05:22;;;;;;;;;;;21.00;99.90;;;;;;5030910;28;20032;-61
2022/04/15 09:07:50;;;;;;;;;;;21.00;99.90;;;;;;5031707;28;19929;-61
2022/04/15 09:10:18;;;;;;;;;;;21.00;99.90;;;;;;5029976;28;20006;-61
2022/04/15 09:12:46;;;;;;;;;;;21.20;99.90;;;;;;5030430;28;19936;-61
2022/04/15 09:15:14;;;;;;;;;;;21.00;99.90;;;;;;5030677;28;20337;-61
2022/04/15 09:17:41;;;;;;;;;;;21.20;99.90;;;;;;5034919;28;19925;-60
2022/04/15 09:20:09;;;;;;;;;;;20.60;99.90;;;;;;5035280;28;19925;-61
2022/04/15 09:22:36;;;;;;;;;;;19.90;99.90;;;;;;5034281;28;20372;-60
2022/04/15 09:25:06;;;;;;;;;;;19.40;99.90;;;;;;5034582;28;20000;-61
2022/04/15 09:27:35;;;;;;;;;;;19.50;99.90;;;;;;5033615;28;19947;-61
2022/04/15 09:30:01;;;;;;;;;;;20.00;99.90;;;;;;5051985;28;19933;-61
2022/04/15 09:32:29;;;;;;;;;;;20.60;99.90;;;;;;5045563;28;19976;-61
2022/04/15 09:34:57;;;;;;;;;;;19.40;99.90;;;;;;5034397;28;19959;-61
2022/04/15 09:37:25;;;;;;;;;;;19.50;99.90;;;;;;5034514;28;19933;-61
2022/04/15 09:40:09;;;;;;;;;;;19.50;99.90;;;;;;5036893;28;19987;-61
2022/04/15 09:42:36;;;;;;;;;;;19.80;99.90;;;;;;5043724;28;19937;-61
2022/04/15 09:45:12;;;;;;;;;;;20.00;99.90;;;;;;5041434;28;20019;-61
2022/04/15 09:47:39;;;;;;;;;;;20.50;99.90;;;;;;5053984;28;19925;-62
2022/04/15 09:50:07;;;;;;;;;;;21.00;99.90;;;;;;5039567;28;20003;-61
2022/04/15 09:52:33;;;;;;;;;;;22.50;99.90;;;;;;5077449;22;19991;-49
2022/04/15 09:55:01;;;;;;;;;;;23.90;99.90;;;;;;5067032;28;20466;-49
2022/04/15 09:57:33;;;;;;;;;;;25.80;99.90;;;;;;5055344;28;19928;-49
2022/04/15 10:00:02;;;;;;;;;;;25.80;99.90;;;;;;5055448;28;19925;-49
2022/04/15 10:02:33;;;;;;;;;;;25.20;99.90;;;;;;5054233;28;19929;-48
2022/04/15 10:05:00;;;;;;;;;;;24.70;99.90;;;;;;5040573;28;19925;-48
2022/04/15 10:07:27;;;;;;;;;;;24.40;99.90;;;;;;5047220;28;19932;-49
2022/04/15 10:09:54;;;;;;;;;;;24.40;99.90;;;;;;5054467;28;20386;-49
2022/04/15 10:12:21;;;;;;;;;;;24.00;99.90;;;;;;5054646;28;19925;-49
2022/04/15 10:14:49;;;;;;;;;;;24.30;99.90;;;;;;5052473;28;19978;-49
2022/04/15 10:17:19;;;;;;;;;;;24.00;99.90;;;;;;5054374;28;20390;-49
2022/04/15 10:19:47;;;;;;;;;;;24.00;99.90;;;;;;5050996;28;20325;-48
2022/04/15 10:22:14;;;;;;;;;;;23.50;99.90;;;;;;5034439;28;19925;-48
2022/04/15 10:24:41;;;;;;;;;;;24.10;99.90;;;;;;5039273;28;19929;-49
2022/04/15 10:27:11;;;;;;;;;;;24.80;99.90;;;;;;5034052;28;20457;-49
2022/04/15 10:29:38;;;;;;;;;;;24.20;99.90;;;;;;5043062;28;20456;-48
2022/04/15 10:32:14;;;;;;;;;;;23.00;99.90;;;;;;5040803;28;19971;-49
2022/04/15 10:34:47;;;;;;;;;;;22.60;99.90;;;;;;5049437;28;19972;-48
2022/04/15 10:37:14;;;;;;;;;;;22.40;99.90;;;;;;5044194;28;19924;-49
2022/04/15 10:39:47;;;;;;;;;;;23.40;99.90;;;;;;5063329;28;19951;-48
2022/04/15 10:42:17;;;;;;;;;;;23.40;99.90;;;;;;5052084;28;19924;-48
2022/04/15 10:44:44;;;;;;;;;;;23.70;99.90;;;;;;5035293;28;19980;-48
2022/04/15 10:47:31;;;;;;;;;;;23.40;99.90;;;;;;5045048;28;19933;-49
2022/04/15 10:50:03;;;;;;;;;;;22.60;99.90;;;;;;5048318;28;19925;-49
2022/04/15 10:52:31;;;;;;;;;;;22.10;99.90;;;;;;5037433;28;19979;-48
2022/04/15 10:54:58;;;;;;;;;;;21.80;99.90;;;;;;5046544;28;19978;-49
2022/04/15 10:57:31;;;;;;;;;;;21.40;99.90;;;;;;5053696;28;19979;-48
2022/04/15 11:02:45;;;;;;;;;;;22.00;99.90;;;;;;5051800;28;20016;-49
2022/04/15 11:05:13;;;;;;;;;;;21.30;99.90;;;;;;5042728;28;19991;-48
2022/04/15 11:07:44;;;;;;;;;;;21.10;99.90;;;;;;5036467;28;20056;-48
2022/04/15 11:10:16;;;;;;;;;;;21.40;99.90;;;;;;5036328;28;19929;-48
2022/04/15 11:12:44;;;;;;;;;;;21.30;99.90;;;;;;5033843;28;19932;-49
2022/04/15 11:15:12;;;;;;;;;;;21.60;99.90;;;;;;5049578;28;19928;-48
2022/04/15 11:17:39;;;;;;;;;;;21.90;99.90;;;;;;5051331;28;20448;-49
2022/04/15 11:20:08;;;;;;;;;;;21.90;99.90;;;;;;5033393;28;20325;-49
2022/04/15 11:22:38;;;;;;;;;;;21.90;99.90;;;;;;5034544;28;19925;-47
2022/04/15 11:25:06;;;;;;;;;;;22.00;99.90;;;;;;5032646;28;19960;-49
2022/04/15 11:27:34;;;;;;;;;;;22.00;99.90;;;;;;5037035;28;19925;-49
2022/04/15 11:30:04;;;;;;;;;;;22.00;99.90;;;;;;5035321;28;19928;-47
2022/04/15 11:32:31;;;;;;;;;;;22.10;99.90;;;;;;5036456;28;19936;-49
2022/04/15 11:35:03;;;;;;;;;;;21.70;99.90;;;;;;5041508;28;20394;-48
2022/04/15 11:37:35;;;;;;;;;;;21.20;99.90;;;;;;5040208;28;19928;-47
2022/04/15 11:40:01;;;;;;;;;;;21.70;99.90;;;;;;5031334;28;19929;-48
2022/04/15 11:42:28;;;;;;;;;;;21.50;99.90;;;;;;5036605;28;19978;-48
2022/04/15 11:44:55;;;;;;;;;;;21.40;99.90;;;;;;5039306;28;19929;-48
2022/04/15 11:47:24;;;;;;;;;;;21.60;99.90;;;;;;5032284;28;19983;-47
2022/04/15 11:49:51;;;;;;;;;;;21.90;99.90;;;;;;5035338;28;20391;-47
2022/04/15 11:52:22;;;;;;;;;;;22.20;99.90;;;;;;5043453;28;19924;-48
2022/04/15 11:54:50;;;;;;;;;;;22.20;99.90;;;;;;5039843;28;19925;-48
2022/04/15 11:57:17;;;;;;;;;;;22.30;99.90;;;;;;5046736;28;19925;-48
2022/04/15 11:59:44;;;;;;;;;;;22.20;99.90;;;;;;5045778;28;19940;-47
2022/04/15 12:02:12;;;;;;;;;;;22.40;99.90;;;;;;5045574;28;19931;-48
2022/04/15 12:04:48;;;;;;;;;;;22.20;99.90;;;;;;5043013;28;19971;-47
2022/04/15 12:07:15;;;;;;;;;;;22.20;99.90;;;;;;5044224;28;19925;-48
2022/04/15 12:09:45;;;;;;;;;;;21.50;99.90;;;;;;5037241;28;19937;-47
2022/04/15 12:12:13;;;;;;;;;;;21.90;99.90;;;;;;5035415;28;19971;-48
2022/04/15 12:14:40;;;;;;;;;;;22.50;99.90;;;;;;5044928;28;19925;-48
2022/04/15 12:17:08;;;;;;;;;;;22.30;99.90;;;;;;5043312;28;20644;-48
2022/04/15 12:19:35;;;;;;;;;;;22.20;99.90;;;;;;5039370;28;19925;-49
2022/04/15 12:22:02;;;;;;;;;;;22.40;99.90;;;;;;5036854;28;19929;-49
2022/04/15 12:24:30;;;;;;;;;;;22.40;99.90;;;;;;5033077;28;19932;-49
2022/04/15 12:27:00;;;;;;;;;;;23.10;99.90;;;;;;5042939;28;19925;-48
2022/04/15 12:32:16;;;;;;;;;;;22.80;99.90;;;;;;5041909;28;20019;-49
2022/04/15 12:34:43;;;;;;;;;;;22.60;99.90;;;;;;5041350;28;19979;-48
2022/04/15 12:37:25;;;;;;;;;;;22.70;99.90;;;;;;5040214;28;19941;-49
2022/04/15 12:39:52;;;;;;;;;;;22.70;99.90;;;;;;5032340;28;19925;-47
2022/04/15 12:42:27;;;;;;;;;;;23.00;99.90;;;;;;5042987;28;19929;-49
2022/04/15 12:44:55;;;;;;;;;;;23.40;99.90;;;;;;5042118;28;19971;-49
2022/04/15 12:47:24;;;;;;;;;;;22.80;99.90;;;;;;5040144;28;19925;-49
2022/04/15 12:49:51;;;;;;;;;;;22.20;99.90;;;;;;5043608;28;19924;-48
2022/04/15 12:52:18;;;;;;;;;;;22.10;99.90;;;;;;5041253;28;19929;-49
2022/04/15 12:54:58;;;;;;;;;;;22.20;99.90;;;;;;5039195;28;19950;-49
2022/04/15 12:57:29;;;;;;;;;;;22.30;99.90;;;;;;5033929;28;19926;-49
2022/04/15 12:59:57;;;;;;;;;;;22.70;99.90;;;;;;5034654;28;20391;-49
2022/04/15 13:02:28;;;;;;;;;;;23.00;99.90;;;;;;5042476;28;21620;-49
2022/04/15 13:04:55;;;;;;;;;;;23.20;99.90;;;;;;5050254;28;19979;-48
2022/04/15 13:07:22;;;;;;;;;;;23.20;99.90;;;;;;5051089;28;20388;-49
2022/04/15 13:09:49;;;;;;;;;;;23.40;99.90;;;;;;5048416;28;19978;-49
2022/04/15 13:12:19;;;;;;;;;;;23.40;99.90;;;;;;5048771;28;19990;-48
2022/04/15 13:14:46;;;;;;;;;;;23.10;99.90;;;;;;5050564;28;20452;-48
2022/04/15 13:17:14;;;;;;;;;;;22.90;99.90;;;;;;5049679;28;20299;-49
2022/04/15 13:19:43;;;;;;;;;;;23.00;99.90;;;;;;5050364;28;20403;-48
2022/04/15 13:22:10;;;;;;;;;;;22.80;99.90;;;;;;5045307;28;19932;-49
2022/04/15 13:24:37;;;;;;;;;;;22.80;99.90;;;;;;5050262;28;19925;-49
2022/04/15 13:27:04;;;;;;;;;;;22.60;99.90;;;;;;5047141;28;19925;-49
2022/04/15 13:29:32;;;;;;;;;;;22.50;99.90;;;;;;5051518;28;19951;-48
2022/04/15 13:31:58;;;;;;;;;;;22.10;99.90;;;;;;5037343;28;20540;-48
2022/04/15 13:34:27;;;;;;;;;;;22.10;99.90;;;;;;5046551;28;19924;-49
2022/04/15 13:36:53;;;;;;;;;;;21.70;99.90;;;;;;5046587;28;19925;-48
2022/04/15 13:39:20;;;;;;;;;;;21.50;99.90;;;;;;5041742;28;20349;-49
2022/04/15 13:41:48;;;;;;;;;;;21.60;99.90;;;;;;5046020;28;19982;-49
2022/04/15 13:44:14;;;;;;;;;;;21.70;99.90;;;;;;5044326;28;19932;-49
2022/04/15 13:46:41;;;;;;;;;;;21.80;99.90;;;;;;5047617;28;19994;-49
2022/04/15 13:49:08;;;;;;;;;;;21.50;99.90;;;;;;5045604;28;19996;-48
2022/04/15 13:51:36;;;;;;;;;;;21.70;99.90;;;;;;5032281;28;20387;-48
2022/04/15 13:56:47;;;;;;;;;;;21.80;99.90;;;;;;5044778;28;20306;-49
2022/04/15 13:59:14;;;;;;;;;;;22.10;99.90;;;;;;5046286;28;19978;-48
2022/04/15 14:01:41;;;;;;;;;;;22.40;99.90;;;;;;5042248;28;19925;-48
2022/04/15 14:04:10;;;;;;;;;;;22.30;99.90;;;;;;5050161;28;20317;-49
2022/04/15 14:06:38;;;;;;;;;;;22.20;99.90;;;;;;5052285;28;19929;-49
2022/04/15 14:09:05;;;;;;;;;;;21.70;99.90;;;;;;5035340;28;19979;-49
2022/04/15 14:11:33;;;;;;;;;;;21.80;99.90;;;;;;5045735;28;19982;-49
2022/04/15 14:14:00;;;;;;;;;;;22.00;99.90;;;;;;5045290;28;19925;-49
2022/04/15 14:16:27;;;;;;;;;;;22.40;99.90;;;;;;5051281;28;19925;-49
2022/04/15 14:18:54;;;;;;;;;;;22.40;99.90;;;;;;5039500;28;19928;-48
2022/04/15 14:21:20;;;;;;;;;;;22.00;99.90;;;;;;5046907;28;20020;-47
2022/04/15 14:23:49;;;;;;;;;;;22.00;99.90;;;;;;5036734;28;20403;-49
2022/04/15 14:26:16;;;;;;;;;;;21.70;99.90;;;;;;5050813;28;19978;-49
2022/04/15 14:28:43;;;;;;;;;;;21.90;99.90;;;;;;5039440;28;19940;-48